createdAt,value
2024-04-26T00:00:44.194Z,8.51
2024-04-26T00:01:44.291Z,8.53
2024-04-26T00:02:44.343Z,8.60
2024-04-26T00:03:44.426Z,8.55
2024-04-26T00:04:44.477Z,8.25
2024-04-26T00:05:44.574Z,8.06
2024-04-26T00:06:44.552Z,8.18
2024-04-26T00:07:44.583Z,8.38
2024-04-26T00:08:44.689Z,8.52
2024-04-26T00:09:44.638Z,8.59
2024-04-26T00:10:44.687Z,8.60
2024-04-26T00:11:44.658Z,8.57
2024-04-26T00:12:44.792Z,8.60
2024-04-26T00:13:44.723Z,8.59
2024-04-26T00:14:44.764Z,8.63
2024-04-26T00:15:44.737Z,8.62
2024-04-26T00:16:44.827Z,8.65
2024-04-26T00:17:44.928Z,8.59
2024-04-26T00:18:44.858Z,8.29
2024-04-26T00:19:44.905Z,8.26
2024-04-26T00:20:44.999Z,8.36
2024-04-26T00:21:45.062Z,8.43
2024-04-26T00:22:45.141Z,8.46
2024-04-26T00:23:45.152Z,8.58
2024-04-26T00:24:45.143Z,8.61
2024-04-26T00:25:45.202Z,8.75
2024-04-26T00:26:45.364Z,8.80
2024-04-26T00:27:45.319Z,8.81
2024-04-26T00:28:45.364Z,8.85
2024-04-26T00:29:45.425Z,8.92
2024-04-26T00:30:45.488Z,8.94
2024-04-26T00:31:45.542Z,9.01
2024-04-26T00:32:45.703Z,8.95
2024-04-26T00:33:45.713Z,9.01
2024-04-26T00:34:45.660Z,9.01
2024-04-26T00:35:45.709Z,8.98
2024-04-26T00:36:45.735Z,8.87
2024-04-26T00:37:45.885Z,8.77
2024-04-26T00:38:45.874Z,8.73
2024-04-26T00:39:46.008Z,8.70
2024-04-26T00:40:45.974Z,8.58
2024-04-26T00:41:46.083Z,8.66
2024-04-26T00:42:46.033Z,8.63
2024-04-26T00:43:46.109Z,8.64
2024-04-26T00:44:46.143Z,8.70
2024-04-26T00:45:46.130Z,8.74
2024-04-26T00:46:46.155Z,8.77
2024-04-26T00:47:46.233Z,8.84
2024-04-26T00:48:46.317Z,8.86
2024-04-26T00:49:46.241Z,8.89
2024-04-26T00:50:46.305Z,8.80
2024-04-26T00:51:46.293Z,8.80
2024-04-26T00:52:46.358Z,8.86
2024-04-26T00:53:46.461Z,8.90
2024-04-26T00:54:46.486Z,8.93
2024-04-26T00:55:46.525Z,8.95
2024-04-26T00:56:46.625Z,8.94
2024-04-26T00:57:46.644Z,8.99
2024-04-26T00:58:46.728Z,8.98
2024-04-26T00:59:46.757Z,8.96
2024-04-26T01:00:46.842Z,8.96
2024-04-26T01:01:46.839Z,8.96
2024-04-26T01:02:46.927Z,8.94
2024-04-26T01:03:46.971Z,8.85
2024-04-26T01:04:47.157Z,8.92
2024-04-26T01:05:47.156Z,8.89
2024-04-26T01:06:47.103Z,8.91
2024-04-26T01:07:47.147Z,8.77
2024-04-26T01:08:47.217Z,8.75
2024-04-26T01:09:47.311Z,8.71
2024-04-26T01:10:47.467Z,8.72
2024-04-26T01:11:47.531Z,8.76
2024-04-26T01:12:47.564Z,8.78
2024-04-26T01:13:47.624Z,8.82
2024-04-26T01:14:47.837Z,8.87
2024-04-26T01:15:47.689Z,8.88
2024-04-26T01:16:47.743Z,8.81
2024-04-26T01:17:47.861Z,8.83
2024-04-26T01:18:47.972Z,8.84
2024-04-26T01:19:47.819Z,8.86
2024-04-26T01:20:47.873Z,8.87
2024-04-26T01:21:47.826Z,8.91
2024-04-26T01:22:47.921Z,8.92
2024-04-26T01:23:47.979Z,8.91
2024-04-26T01:24:47.950Z,8.92
2024-04-26T01:25:48.071Z,8.96
2024-04-26T01:26:48.099Z,8.99
2024-04-26T01:27:48.125Z,8.92
2024-04-26T01:28:48.329Z,8.93
2024-04-26T01:29:48.290Z,8.95
2024-04-26T01:30:48.363Z,8.96
2024-04-26T01:31:48.436Z,9.01
2024-04-26T01:32:48.639Z,8.92
2024-04-26T01:33:48.538Z,8.95
2024-04-26T01:34:48.588Z,8.96
2024-04-26T01:35:48.628Z,8.88
2024-04-26T01:36:48.584Z,8.89
2024-04-26T01:37:48.610Z,8.88
2024-04-26T01:38:48.653Z,8.72
2024-04-26T01:39:48.724Z,8.68
2024-04-26T01:40:48.833Z,8.62
2024-04-26T01:41:48.844Z,8.56
2024-04-26T01:42:48.899Z,8.58
2024-04-26T01:43:48.935Z,8.62
2024-04-26T01:44:49.090Z,8.59
2024-04-26T01:45:49.095Z,8.58
2024-04-26T01:46:49.289Z,8.59
2024-04-26T01:47:49.331Z,8.64
2024-04-26T01:48:49.524Z,8.63
2024-04-26T01:49:49.352Z,8.63
2024-04-26T01:50:49.403Z,8.59
2024-04-26T01:51:49.431Z,8.62
2024-04-26T01:52:49.441Z,8.65
2024-04-26T01:53:49.606Z,8.67
2024-04-26T01:54:49.574Z,8.69
2024-04-26T01:55:49.613Z,8.72
2024-04-26T01:56:49.686Z,8.71
2024-04-26T01:57:49.725Z,8.67
2024-04-26T01:58:49.803Z,8.61
2024-04-26T01:59:49.848Z,8.57
2024-04-26T02:00:49.799Z,8.55
2024-04-26T02:01:49.826Z,8.47
2024-04-26T02:02:49.973Z,8.39
2024-04-26T02:03:50.008Z,8.41
2024-04-26T02:04:49.977Z,8.36
2024-04-26T02:05:50.021Z,8.37
2024-04-26T02:06:50.029Z,8.40
2024-04-26T02:07:50.071Z,8.46
2024-04-26T02:08:50.200Z,8.50
2024-04-26T02:09:50.104Z,8.43
2024-04-26T02:10:50.196Z,8.44
2024-04-26T02:11:50.275Z,8.45
2024-04-26T02:12:50.236Z,8.47
2024-04-26T02:13:50.232Z,8.46
2024-04-26T02:14:50.405Z,8.43
2024-04-26T02:15:50.278Z,8.40
2024-04-26T02:16:50.288Z,8.31
2024-04-26T02:17:50.451Z,8.24
2024-04-26T02:18:50.498Z,8.28
2024-04-26T02:19:50.343Z,8.23
2024-04-26T02:20:50.417Z,8.25
2024-04-26T02:21:50.344Z,8.17
2024-04-26T02:22:50.406Z,8.16
2024-04-26T02:23:50.584Z,8.16
2024-04-26T02:24:50.502Z,8.16
2024-04-26T02:25:50.527Z,8.19
2024-04-26T02:26:50.646Z,8.18
2024-04-26T02:27:50.584Z,8.19
2024-04-26T02:28:50.638Z,8.22
2024-04-26T02:29:50.692Z,8.24
2024-04-26T02:30:50.668Z,8.21
2024-04-26T02:31:50.714Z,8.24
2024-04-26T02:32:50.877Z,8.18
2024-04-26T02:33:50.839Z,8.07
2024-04-26T02:34:50.679Z,8.06
2024-04-26T02:35:50.713Z,8.03
2024-04-26T02:36:50.677Z,7.99
2024-04-26T02:37:50.712Z,8.06
2024-04-26T02:38:50.868Z,8.11
2024-04-26T02:39:50.847Z,8.14
2024-04-26T02:40:50.899Z,8.14
2024-04-26T02:41:50.960Z,8.16
2024-04-26T02:42:51.006Z,8.17
2024-04-26T02:43:51.064Z,8.14
2024-04-26T02:44:51.190Z,8.16
2024-04-26T02:45:51.162Z,8.12
2024-04-26T02:46:51.304Z,8.19
2024-04-26T02:47:51.388Z,8.13
2024-04-26T02:48:51.444Z,8.12
2024-04-26T02:49:51.462Z,8.19
2024-04-26T02:50:51.475Z,8.25
2024-04-26T02:51:51.425Z,8.29
2024-04-26T02:52:51.461Z,8.30
2024-04-26T02:53:51.515Z,8.29
2024-04-26T02:54:51.550Z,8.29
2024-04-26T02:55:51.525Z,8.08
2024-04-26T02:56:51.636Z,8.15
2024-04-26T02:57:51.614Z,8.07
2024-04-26T02:58:51.636Z,8.02
2024-04-26T02:59:51.764Z,8.05
2024-04-26T03:00:51.771Z,8.11
2024-04-26T03:01:51.823Z,8.12
2024-04-26T03:02:51.899Z,7.98
2024-04-26T03:03:52.010Z,7.81
2024-04-26T03:04:52.026Z,7.93
2024-04-26T03:05:52.090Z,7.87
2024-04-26T03:06:52.092Z,7.79
2024-04-26T03:07:52.223Z,7.91
2024-04-26T03:08:52.230Z,8.01
2024-04-26T03:09:52.315Z,8.02
2024-04-26T03:10:52.302Z,8.07
2024-04-26T03:11:52.427Z,8.05
2024-04-26T03:12:52.552Z,7.86
2024-04-26T03:13:52.526Z,7.83
2024-04-26T03:14:52.597Z,7.86
2024-04-26T03:15:52.634Z,7.86
2024-04-26T03:16:52.676Z,7.98
2024-04-26T03:17:52.907Z,8.04
2024-04-26T03:18:52.961Z,8.13
2024-04-26T03:19:52.792Z,8.16
2024-04-26T03:20:53.015Z,8.20
2024-04-26T03:21:52.852Z,8.19
2024-04-26T03:22:52.902Z,8.14
2024-04-26T03:23:52.937Z,8.11
2024-04-26T03:24:52.972Z,8.10
2024-04-26T03:25:53.011Z,8.00
2024-04-26T03:26:53.051Z,8.02
2024-04-26T03:27:53.138Z,8.04
2024-04-26T03:28:53.182Z,8.04
2024-04-26T03:29:53.270Z,7.98
2024-04-26T03:30:53.260Z,8.01
2024-04-26T03:31:53.347Z,8.06
2024-04-26T03:32:53.414Z,8.03
2024-04-26T03:33:53.504Z,8.05
2024-04-26T03:34:53.474Z,8.07
2024-04-26T03:35:53.554Z,8.02
2024-04-26T03:36:53.567Z,7.94
2024-04-26T03:37:53.676Z,7.93
2024-04-26T03:38:53.798Z,7.93
2024-04-26T03:39:53.837Z,7.94
2024-04-26T03:40:53.915Z,7.98
2024-04-26T03:41:54.057Z,7.95
2024-04-26T03:42:54.074Z,7.89
2024-04-26T03:43:54.137Z,7.98
2024-04-26T03:44:54.308Z,7.91
2024-04-26T03:45:54.351Z,7.95
2024-04-26T03:46:54.440Z,7.97
2024-04-26T03:47:54.615Z,7.93
2024-04-26T03:48:54.652Z,7.97
2024-04-26T03:49:54.630Z,8.03
2024-04-26T03:50:55.448Z,8.05
2024-04-26T03:51:54.724Z,8.04
2024-04-26T03:52:54.808Z,8.06
2024-04-26T03:53:54.873Z,8.10
2024-04-26T03:54:54.829Z,8.10
2024-04-26T03:55:54.813Z,8.13
2024-04-26T03:56:54.997Z,7.88
2024-04-26T03:57:54.935Z,7.92
2024-04-26T03:58:54.985Z,7.88
2024-04-26T03:59:55.059Z,7.78
2024-04-26T04:00:55.124Z,7.80
2024-04-26T04:01:55.198Z,7.86
2024-04-26T04:02:55.362Z,7.91
2024-04-26T04:03:55.538Z,7.95
2024-04-26T04:04:55.471Z,7.98
2024-04-26T04:05:55.476Z,7.98
2024-04-26T04:06:55.538Z,8.00
2024-04-26T04:07:55.474Z,8.04
2024-04-26T04:08:55.533Z,8.06
2024-04-26T04:09:55.529Z,8.08
2024-04-26T04:10:55.549Z,7.96
2024-04-26T04:11:55.667Z,8.04
2024-04-26T04:12:55.781Z,8.02
2024-04-26T04:13:55.782Z,7.91
2024-04-26T04:14:55.883Z,7.86
2024-04-26T04:15:55.945Z,7.88
2024-04-26T04:16:56.008Z,7.89
2024-04-26T04:17:56.160Z,7.95
2024-04-26T04:18:56.259Z,7.99
2024-04-26T04:19:56.291Z,7.98
2024-04-26T04:20:56.507Z,7.87
2024-04-26T04:21:56.443Z,7.76
2024-04-26T04:22:56.489Z,7.79
2024-04-26T04:23:56.709Z,7.75
2024-04-26T04:24:56.621Z,7.77
2024-04-26T04:25:56.686Z,7.80
2024-04-26T04:26:56.735Z,7.80
2024-04-26T04:27:56.719Z,7.85
2024-04-26T04:28:56.819Z,7.88
2024-04-26T04:29:56.919Z,7.96
2024-04-26T04:30:56.858Z,8.03
2024-04-26T04:31:56.921Z,8.03
2024-04-26T04:32:57.013Z,8.06
2024-04-26T04:33:57.252Z,8.01
2024-04-26T04:34:57.130Z,8.10
2024-04-26T04:35:57.035Z,8.11
2024-04-26T04:36:57.002Z,8.03
2024-04-26T04:37:57.030Z,8.08
2024-04-26T04:38:57.207Z,8.12
2024-04-26T04:39:57.113Z,8.06
2024-04-26T04:40:57.111Z,8.07
2024-04-26T04:41:57.157Z,8.09
2024-04-26T04:42:57.139Z,8.14
2024-04-26T04:43:57.149Z,8.13
2024-04-26T04:44:57.222Z,8.12
2024-04-26T04:45:57.153Z,8.10
2024-04-26T04:46:57.204Z,8.13
2024-04-26T04:47:57.451Z,8.13
2024-04-26T04:48:57.341Z,8.15
2024-04-26T04:49:57.279Z,8.17
2024-04-26T04:50:57.328Z,8.15
2024-04-26T04:51:57.364Z,8.14
2024-04-26T04:52:57.432Z,8.11
2024-04-26T04:53:57.608Z,8.13
2024-04-26T04:54:57.718Z,8.13
2024-04-26T04:55:57.698Z,8.14
2024-04-26T04:56:57.773Z,8.24
2024-04-26T04:57:57.812Z,8.34
2024-04-26T04:58:57.880Z,8.36
2024-04-26T04:59:57.989Z,8.39
2024-04-26T05:02:20.746Z,8.27
2024-04-26T05:02:58.184Z,8.19
2024-04-26T05:03:58.239Z,8.19
2024-04-26T05:04:58.296Z,8.29
2024-04-26T05:05:58.215Z,8.35
2024-04-26T05:06:58.262Z,8.38
2024-04-26T05:07:58.199Z,8.44
2024-04-26T05:08:58.265Z,8.47
2024-04-26T05:09:58.279Z,8.39
2024-04-26T05:10:59.293Z,8.37
2024-04-26T05:11:58.366Z,8.33
2024-04-26T05:12:58.279Z,8.29
2024-04-26T05:13:58.360Z,8.17
2024-04-26T05:14:58.436Z,8.05
2024-04-26T05:15:58.339Z,8.04
2024-04-26T05:16:58.352Z,8.09
2024-04-26T05:18:06.541Z,8.14
2024-04-26T05:19:06.106Z,8.27
2024-04-26T05:20:05.956Z,8.38
2024-04-26T05:21:06.075Z,8.41
2024-04-26T05:22:05.876Z,8.48
2024-04-26T05:23:05.865Z,8.58
2024-04-26T05:24:06.002Z,8.65
2024-04-26T05:25:05.993Z,8.67
2024-04-26T05:26:05.791Z,8.77
2024-04-26T05:27:05.874Z,8.86
2024-04-26T05:28:05.829Z,8.86
2024-04-26T05:29:05.746Z,8.93
2024-04-26T05:30:07.248Z,8.96
2024-04-26T05:31:06.362Z,8.97
2024-04-26T05:32:05.699Z,9.00
2024-04-26T05:33:06.133Z,9.01
2024-04-26T05:34:05.835Z,9.06
2024-04-26T05:35:05.631Z,9.03
2024-04-26T05:36:05.759Z,9.05
2024-04-26T05:37:05.665Z,9.09
2024-04-26T05:38:05.651Z,9.00
2024-04-26T05:39:05.882Z,8.93
2024-04-26T05:40:06.107Z,8.95
2024-04-26T05:41:05.660Z,9.12
2024-04-26T05:42:05.825Z,8.98
2024-04-26T05:43:05.688Z,8.92
2024-04-26T05:44:05.695Z,9.10
2024-04-26T05:45:06.212Z,9.18
2024-04-26T05:47:31.422Z,9.15
2024-04-26T05:48:05.761Z,9.20
2024-04-26T05:49:05.737Z,9.37
2024-04-26T05:50:07.247Z,9.48
2024-04-26T05:51:05.717Z,9.59
2024-04-26T05:52:05.520Z,9.69
2024-04-26T05:53:05.527Z,9.66
2024-04-26T05:54:05.710Z,9.62
2024-04-26T05:55:05.478Z,9.67
2024-04-26T05:56:05.754Z,9.59
2024-04-26T05:57:05.762Z,9.54
2024-04-26T05:58:05.321Z,9.47
2024-04-26T05:59:05.320Z,9.49
2024-04-26T06:00:05.475Z,9.54
2024-04-26T06:01:05.287Z,9.65
2024-04-26T06:02:05.233Z,9.63
2024-04-26T06:03:05.253Z,9.63
2024-04-26T06:04:06.447Z,9.52
2024-04-26T06:05:05.172Z,9.52
2024-04-26T06:06:05.183Z,9.40
2024-04-26T06:07:05.092Z,9.37
2024-04-26T06:08:05.084Z,9.50
2024-04-26T06:09:05.537Z,9.66
2024-04-26T06:10:04.929Z,9.84
2024-04-26T06:11:05.319Z,9.59
2024-04-26T06:12:04.874Z,9.57
2024-04-26T06:13:13.583Z,9.41
2024-04-26T06:14:06.386Z,9.43
2024-04-26T06:15:04.898Z,9.41
2024-04-26T06:16:04.751Z,9.50
2024-04-26T06:17:04.701Z,9.58
2024-04-26T06:18:04.733Z,9.40
2024-04-26T06:19:04.806Z,9.43
2024-04-26T06:20:04.602Z,9.57
2024-04-26T06:21:04.643Z,9.46
2024-04-26T06:22:04.532Z,9.31
2024-04-26T06:23:04.499Z,9.15
2024-04-26T06:24:04.560Z,8.75
2024-04-26T06:25:05.114Z,8.60
2024-04-26T06:26:04.415Z,8.55
2024-04-26T06:27:04.479Z,8.65
2024-04-26T06:28:04.328Z,8.78
2024-04-26T06:29:04.894Z,8.96
2024-04-26T06:30:04.571Z,9.01
2024-04-26T06:31:04.226Z,9.04
2024-04-26T06:32:04.257Z,9.16
2024-04-26T06:33:04.345Z,9.10
2024-04-26T06:34:04.349Z,9.20
2024-04-26T06:35:05.153Z,9.39
2024-04-26T06:36:04.162Z,9.41
2024-04-26T06:37:04.077Z,9.59
2024-04-26T06:38:04.048Z,9.67
2024-04-26T06:39:04.149Z,9.82
2024-04-26T06:40:04.092Z,9.97
2024-04-26T06:41:03.993Z,9.91
2024-04-26T06:42:04.047Z,9.87
2024-04-26T06:43:03.796Z,9.99
2024-04-26T06:44:12.266Z,9.99
2024-04-26T06:45:05.279Z,10.05
2024-04-26T06:46:03.650Z,10.06
2024-04-26T06:47:03.843Z,10.23
2024-04-26T06:48:03.660Z,10.14
2024-04-26T06:49:03.908Z,10.08
2024-04-26T06:50:04.204Z,10.18
2024-04-26T06:51:03.415Z,10.24
2024-04-26T06:52:03.291Z,10.45
2024-04-26T06:53:03.247Z,10.64
2024-04-26T06:54:03.290Z,10.81
2024-04-26T06:55:03.593Z,10.89
2024-04-26T06:56:03.055Z,11.01
2024-04-26T06:57:03.085Z,11.20
2024-04-26T06:58:02.896Z,11.45
2024-04-26T06:59:02.903Z,11.48
2024-04-26T07:00:02.970Z,11.37
2024-04-26T07:01:05.669Z,11.31
2024-04-26T07:02:02.933Z,11.38
2024-04-26T07:03:02.907Z,11.54
2024-04-26T07:04:03.279Z,11.68
2024-04-26T07:05:02.737Z,11.72
2024-04-26T07:06:02.506Z,11.71
2024-04-26T07:07:02.412Z,11.59
2024-04-26T07:08:02.364Z,11.63
2024-04-26T07:09:02.320Z,11.44
2024-04-26T07:10:02.286Z,11.47
2024-04-26T07:11:02.255Z,11.47
2024-04-26T07:12:02.208Z,11.17
2024-04-26T07:13:02.019Z,11.06
2024-04-26T07:14:01.975Z,11.13
2024-04-26T07:15:02.166Z,11.19
2024-04-26T07:16:10.934Z,11.12
2024-04-26T07:17:02.904Z,10.79
2024-04-26T07:18:02.762Z,10.86
2024-04-26T07:19:01.834Z,10.66
2024-04-26T07:20:01.834Z,10.45
2024-04-26T07:21:01.749Z,10.44
2024-04-26T07:22:01.614Z,10.57
2024-04-26T07:23:03.745Z,10.81
2024-04-26T07:24:01.596Z,10.97
2024-04-26T07:25:01.655Z,11.23
2024-04-26T07:26:01.269Z,11.39
2024-04-26T07:27:01.337Z,11.48
2024-04-26T07:28:01.236Z,11.49
2024-04-26T07:29:14.573Z,11.55
2024-04-26T07:30:02.271Z,11.63
2024-04-26T07:31:01.083Z,11.58
2024-04-26T07:32:01.025Z,11.73
2024-04-26T07:33:00.996Z,11.89
2024-04-26T07:34:00.911Z,12.00
2024-04-26T07:35:01.049Z,12.24
2024-04-26T07:36:00.825Z,12.26
2024-04-26T07:37:00.633Z,12.21
2024-04-26T07:38:00.695Z,12.05
2024-04-26T07:39:00.499Z,12.16
2024-04-26T07:40:00.576Z,12.33
2024-04-26T07:41:00.349Z,12.19
2024-04-26T07:42:00.343Z,12.18
2024-04-26T07:43:00.149Z,12.23
2024-04-26T07:44:00.169Z,12.41
2024-04-26T07:45:01.092Z,12.38
2024-04-26T07:46:00.040Z,12.26
2024-04-26T07:47:00.894Z,12.21
2024-04-26T07:48:00.092Z,11.91
2024-04-26T07:49:00.325Z,11.91
2024-04-26T07:50:00.000Z,11.92
2024-04-26T07:50:59.912Z,12.04
2024-04-26T07:51:59.821Z,12.16
2024-04-26T07:52:59.726Z,12.25
2024-04-26T07:53:59.717Z,12.41
2024-04-26T07:55:00.529Z,12.43
2024-04-26T07:56:00.031Z,12.35
2024-04-26T07:56:59.564Z,12.36
2024-04-26T07:57:59.522Z,12.42
2024-04-26T07:58:59.430Z,12.64
2024-04-26T07:59:59.359Z,12.92
2024-04-26T08:00:59.600Z,12.98
2024-04-26T08:01:59.246Z,12.99
2024-04-26T08:02:59.169Z,12.79
2024-04-26T08:03:59.473Z,12.66
2024-04-26T08:04:59.085Z,12.79
2024-04-26T08:05:59.603Z,13.04
2024-04-26T08:06:59.060Z,13.05
2024-04-26T08:07:59.037Z,13.10
2024-04-26T08:08:58.991Z,13.24
2024-04-26T08:09:58.865Z,12.99
2024-04-26T08:10:58.826Z,12.93
2024-04-26T08:11:58.839Z,12.99
2024-04-26T08:12:58.783Z,13.07
2024-04-26T08:13:58.734Z,12.94
2024-04-26T08:14:58.642Z,12.79
2024-04-26T08:15:59.042Z,12.69
2024-04-26T08:16:58.538Z,12.68
2024-04-26T08:17:58.585Z,12.69
2024-04-26T08:18:58.551Z,12.80
2024-04-26T08:19:58.426Z,12.97
2024-04-26T08:20:58.529Z,13.08
2024-04-26T08:21:58.368Z,13.24
2024-04-26T08:22:58.291Z,13.32
2024-04-26T08:23:58.281Z,13.31
2024-04-26T08:25:00.601Z,13.50
2024-04-26T08:25:58.105Z,13.54
2024-04-26T08:26:58.051Z,13.53
2024-04-26T08:27:58.005Z,13.66
2024-04-26T08:28:57.806Z,13.85
2024-04-26T08:29:57.917Z,13.77
2024-04-26T08:30:58.071Z,13.73
2024-04-26T08:31:57.642Z,13.70
2024-04-26T08:33:04.423Z,13.66
2024-04-26T08:33:58.612Z,13.62
2024-04-26T08:34:57.409Z,13.81
2024-04-26T08:35:57.741Z,13.98
2024-04-26T08:36:57.219Z,13.87
2024-04-26T08:37:57.102Z,13.78
2024-04-26T08:38:57.366Z,13.80
2024-04-26T08:39:58.506Z,14.05
2024-04-26T08:40:56.859Z,14.05
2024-04-26T08:41:56.832Z,14.20
2024-04-26T08:42:56.775Z,14.10
2024-04-26T08:43:57.591Z,13.76
2024-04-26T08:44:56.758Z,13.65
2024-04-26T08:45:57.058Z,13.58
2024-04-26T08:46:56.611Z,13.62
2024-04-26T08:47:56.705Z,13.59
2024-04-26T08:48:56.657Z,13.65
2024-04-26T08:49:56.423Z,13.81
2024-04-26T08:50:58.790Z,13.89
2024-04-26T08:51:56.246Z,13.93
2024-04-26T08:52:56.155Z,14.06
2024-04-26T08:53:56.179Z,14.31
2024-04-26T08:54:56.033Z,14.52
2024-04-26T08:55:56.074Z,14.66
2024-04-26T08:56:55.960Z,14.73
2024-04-26T08:57:55.606Z,14.93
2024-04-26T08:58:55.572Z,15.05
2024-04-26T08:59:55.386Z,15.02
2024-04-26T09:00:55.632Z,14.91
2024-04-26T09:01:55.185Z,14.74
2024-04-26T09:02:55.696Z,14.73
2024-04-26T09:03:55.165Z,14.81
2024-04-26T09:04:54.858Z,14.99
2024-04-26T09:05:54.788Z,15.09
2024-04-26T09:06:55.091Z,15.16
2024-04-26T09:07:54.506Z,15.12
2024-04-26T09:08:54.519Z,15.15
2024-04-26T09:09:55.586Z,15.31
2024-04-26T09:10:54.175Z,15.13
2024-04-26T09:11:54.255Z,15.09
2024-04-26T09:13:01.436Z,15.20
2024-04-26T09:13:54.770Z,15.39
2024-04-26T09:14:53.786Z,15.32
2024-04-26T09:15:53.630Z,15.30
2024-04-26T09:16:53.461Z,15.32
2024-04-26T09:17:53.585Z,15.40
2024-04-26T09:18:53.398Z,15.60
2024-04-26T09:19:53.079Z,15.81
2024-04-26T09:20:52.986Z,15.89
2024-04-26T09:21:53.070Z,16.02
2024-04-26T09:22:52.742Z,16.17
2024-04-26T09:23:52.787Z,16.16
2024-04-26T09:24:52.554Z,16.07
2024-04-26T09:25:52.504Z,16.15
2024-04-26T09:26:52.607Z,16.18
2024-04-26T09:27:52.268Z,16.09
2024-04-26T09:28:52.258Z,16.00
2024-04-26T09:29:52.260Z,16.05
2024-04-26T09:30:52.020Z,16.18
2024-04-26T09:31:52.099Z,16.35
2024-04-26T09:32:58.895Z,16.62
2024-04-26T09:33:52.833Z,16.80
2024-04-26T09:34:51.847Z,16.99
2024-04-26T09:35:51.729Z,17.13
2024-04-26T09:36:52.163Z,17.17
2024-04-26T09:37:51.115Z,17.09
2024-04-26T09:38:50.999Z,17.24
2024-04-26T09:39:50.815Z,17.46
2024-04-26T09:40:50.652Z,17.57
2024-04-26T09:41:50.595Z,17.72
2024-04-26T09:42:50.333Z,17.60
2024-04-26T09:43:50.248Z,17.35
2024-04-26T09:44:50.512Z,17.50
2024-04-26T09:45:50.056Z,17.69
2024-04-26T09:46:50.075Z,17.79
2024-04-26T09:47:49.889Z,17.60
2024-04-26T09:48:49.874Z,17.68
2024-04-26T09:49:49.569Z,17.56
2024-04-26T09:50:49.484Z,17.30
2024-04-26T09:51:49.658Z,17.16
2024-04-26T09:52:49.212Z,17.22
2024-04-26T09:53:49.179Z,17.43
2024-04-26T09:54:48.985Z,17.59
2024-04-26T09:55:48.983Z,17.68
2024-04-26T09:56:49.085Z,17.85
2024-04-26T09:57:48.660Z,18.11
2024-04-26T09:58:48.549Z,18.37
2024-04-26T09:59:48.491Z,18.58
2024-04-26T10:00:48.358Z,18.81
2024-04-26T10:01:48.593Z,18.81
2024-04-26T10:02:48.218Z,18.92
2024-04-26T10:03:49.011Z,19.02
2024-04-26T10:04:47.942Z,19.04
2024-04-26T10:05:47.866Z,19.15
2024-04-26T10:06:47.744Z,19.36
2024-04-26T10:07:47.621Z,19.40
2024-04-26T10:08:47.549Z,19.45
2024-04-26T10:09:47.352Z,19.47
2024-04-26T10:10:47.279Z,19.56
2024-04-26T10:11:47.142Z,19.62
2024-04-26T10:12:47.106Z,19.35
2024-04-26T10:13:46.832Z,18.93
2024-04-26T10:14:46.761Z,18.86
2024-04-26T10:15:46.575Z,18.87
2024-04-26T10:16:46.472Z,19.06
2024-04-26T10:17:46.867Z,18.59
2024-04-26T10:18:46.451Z,18.15
2024-04-26T10:19:46.231Z,17.92
2024-04-26T10:20:46.204Z,17.94
2024-04-26T10:21:45.976Z,18.23
2024-04-26T10:22:46.341Z,18.35
2024-04-26T10:23:45.786Z,18.58
2024-04-26T10:24:45.740Z,18.64
2024-04-26T10:25:45.562Z,18.79
2024-04-26T10:26:45.501Z,18.94
2024-04-26T10:27:45.559Z,19.05
2024-04-26T10:28:45.177Z,19.19
2024-04-26T10:29:45.159Z,19.41
2024-04-26T10:30:44.934Z,19.65
2024-04-26T10:31:44.874Z,19.74
2024-04-26T10:32:45.179Z,19.35
2024-04-26T10:33:44.705Z,19.23
2024-04-26T10:34:44.505Z,19.40
2024-04-26T10:35:44.412Z,19.22
2024-04-26T10:36:44.253Z,19.30
2024-04-26T10:37:44.608Z,19.64
2024-04-26T10:38:44.135Z,19.68
2024-04-26T10:39:44.068Z,19.74
2024-04-26T10:40:43.772Z,19.67
2024-04-26T10:41:43.710Z,19.53
2024-04-26T10:42:43.597Z,19.39
2024-04-26T10:43:43.494Z,19.37
2024-04-26T10:44:43.352Z,19.35
2024-04-26T10:45:44.249Z,19.47
2024-04-26T10:46:43.043Z,19.58
2024-04-26T10:47:43.434Z,19.65
2024-04-26T10:48:42.981Z,19.60
2024-04-26T10:49:42.884Z,19.69
2024-04-26T10:50:42.548Z,19.73
2024-04-26T10:51:42.516Z,19.52
2024-04-26T10:52:42.357Z,19.49
2024-04-26T10:53:42.351Z,19.45
2024-04-26T10:54:42.159Z,19.55
2024-04-26T10:55:42.063Z,19.78
2024-04-26T10:56:41.942Z,19.96
2024-04-26T10:57:42.766Z,20.12
2024-04-26T10:58:42.622Z,20.37
2024-04-26T10:59:41.534Z,20.53
2024-04-26T11:00:41.459Z,20.51
2024-04-26T11:01:41.260Z,20.58
2024-04-26T11:02:41.436Z,20.70
2024-04-26T11:03:41.201Z,20.47
2024-04-26T11:04:40.938Z,20.20
2024-04-26T11:05:40.807Z,20.25
2024-04-26T11:06:40.632Z,20.41
2024-04-26T11:07:40.633Z,20.19
2024-04-26T11:08:40.242Z,20.19
2024-04-26T11:09:40.105Z,20.33
2024-04-26T11:10:40.045Z,20.35
2024-04-26T11:11:39.916Z,20.35
2024-04-26T11:12:39.660Z,20.55
2024-04-26T11:13:39.429Z,20.73
2024-04-26T11:14:39.368Z,20.70
2024-04-26T11:15:39.117Z,20.33
2024-04-26T11:16:38.952Z,20.12
2024-04-26T11:17:38.959Z,20.06
2024-04-26T11:18:38.805Z,19.88
2024-04-26T11:19:38.763Z,19.90
2024-04-26T11:20:38.444Z,20.09
2024-04-26T11:21:38.320Z,19.90
2024-04-26T11:22:38.174Z,19.77
2024-04-26T11:23:38.148Z,19.71
2024-04-26T11:24:38.011Z,19.90
2024-04-26T11:25:37.897Z,20.06
2024-04-26T11:26:37.777Z,20.26
2024-04-26T11:27:37.585Z,20.38
2024-04-26T11:28:37.545Z,20.18
2024-04-26T11:29:37.486Z,19.95
2024-04-26T11:30:37.374Z,19.90
2024-04-26T11:31:37.246Z,19.96
2024-04-26T11:32:37.455Z,19.95
2024-04-26T11:33:43.964Z,19.71
2024-04-26T11:34:37.848Z,19.77
2024-04-26T11:35:36.667Z,19.71
2024-04-26T11:36:36.401Z,19.72
2024-04-26T11:37:36.627Z,19.80
2024-04-26T11:38:36.135Z,20.03
2024-04-26T11:39:35.911Z,20.07
2024-04-26T11:40:35.758Z,20.18
2024-04-26T11:41:35.633Z,20.18
2024-04-26T11:42:35.428Z,20.13
2024-04-26T11:43:35.241Z,20.06
2024-04-26T11:44:35.179Z,20.03
2024-04-26T11:45:35.054Z,20.08
2024-04-26T11:46:34.942Z,20.13
2024-04-26T11:47:34.958Z,20.06
2024-04-26T11:48:34.899Z,20.13
2024-04-26T11:49:34.651Z,20.32
2024-04-26T11:50:34.472Z,20.40
2024-04-26T11:51:34.395Z,20.04
2024-04-26T11:52:34.219Z,19.90
2024-04-26T11:53:34.224Z,19.69
2024-04-26T11:54:33.984Z,19.39
2024-04-26T11:55:34.076Z,19.54
2024-04-26T11:56:33.955Z,19.79
2024-04-26T11:57:34.128Z,19.85
2024-04-26T11:58:33.603Z,19.89
2024-04-26T11:59:33.640Z,19.97
2024-04-26T12:00:33.487Z,19.87
2024-04-26T12:01:33.280Z,19.75
2024-04-26T12:02:33.188Z,19.97
2024-04-26T12:03:33.062Z,20.15
2024-04-26T12:04:33.681Z,20.04
2024-04-26T12:05:32.830Z,19.74
2024-04-26T12:06:32.703Z,19.73
2024-04-26T12:07:32.555Z,19.77
2024-04-26T12:08:39.017Z,19.91
2024-04-26T12:09:33.279Z,19.72
2024-04-26T12:10:32.201Z,20.02
2024-04-26T12:11:32.115Z,20.15
2024-04-26T12:12:31.837Z,20.26
2024-04-26T12:13:31.662Z,20.22
2024-04-26T12:14:31.554Z,20.11
2024-04-26T12:15:31.455Z,20.02
2024-04-26T12:16:31.255Z,20.25
2024-04-26T12:17:31.176Z,20.45
2024-04-26T12:18:31.078Z,20.47
2024-04-26T12:19:30.791Z,20.44
2024-04-26T12:20:33.011Z,20.48
2024-04-26T12:21:30.584Z,20.49
2024-04-26T12:22:30.324Z,20.40
2024-04-26T12:23:30.260Z,20.42
2024-04-26T12:24:30.000Z,20.39
2024-04-26T12:25:29.819Z,20.57
2024-04-26T12:26:29.839Z,20.70
2024-04-26T12:27:29.567Z,20.59
2024-04-26T12:28:29.376Z,20.48
2024-04-26T12:29:29.242Z,20.50
2024-04-26T12:30:29.101Z,20.45
2024-04-26T12:31:28.919Z,20.37
2024-04-26T12:32:29.290Z,20.49
2024-04-26T12:33:28.748Z,20.49
2024-04-26T12:34:28.635Z,20.53
2024-04-26T12:35:28.438Z,20.68
2024-04-26T12:36:28.151Z,20.91
2024-04-26T12:37:28.014Z,20.99
2024-04-26T12:38:27.888Z,20.86
2024-04-26T12:39:27.718Z,20.74
2024-04-26T12:40:27.554Z,20.70
2024-04-26T12:41:27.449Z,20.92
2024-04-26T12:42:27.205Z,20.69
2024-04-26T12:43:27.069Z,20.66
2024-04-26T12:44:26.896Z,20.62
2024-04-26T12:45:26.831Z,20.69
2024-04-26T12:46:26.657Z,20.78
2024-04-26T12:47:26.744Z,20.80
2024-04-26T12:48:26.655Z,20.89
2024-04-26T12:49:26.439Z,20.92
2024-04-26T12:50:26.220Z,20.87
2024-04-26T12:51:25.989Z,20.72
2024-04-26T12:52:25.923Z,20.50
2024-04-26T12:53:25.849Z,20.59
2024-04-26T12:54:25.619Z,20.56
2024-04-26T12:55:25.499Z,20.42
2024-04-26T12:56:25.383Z,20.22
2024-04-26T12:57:25.223Z,20.22
2024-04-26T12:58:26.055Z,20.39
2024-04-26T12:59:25.002Z,20.57
2024-04-26T13:00:24.837Z,20.67
2024-04-26T13:01:24.690Z,20.71
2024-04-26T13:02:24.743Z,20.66
2024-04-26T13:03:24.670Z,20.79
2024-04-26T13:04:24.472Z,20.71
2024-04-26T13:05:24.233Z,20.80
2024-04-26T13:06:24.167Z,20.68
2024-04-26T13:07:23.990Z,20.71